sensor_id;sensor_type;location;lat;lon;timestamp;temperature;humidity
4637;DHT22;2331;48.806;9.140;2022-12-29T00:02:00;10.70;1.00
4637;DHT22;2331;48.806;9.140;2022-12-29T00:04:26;10.70;1.00
4637;DHT22;2331;48.806;9.140;2022-12-29T00:06:54;10.80;1.00
4637;DHT22;2331;48.806;9.140;2022-12-29T00:09:21;10.80;1.00
4637;DHT22;2331;48.806;9.140;2022-12-29T00:11:48;10.90;1.00
4637;DHT22;2331;48.806;9.140;2022-12-29T00:14:15;10.90;1.00
4637;DHT22;2331;48.806;9.140;2022-12-29T00:17:00;10.90;1.00
4637;DHT22;2331;48.806;9.140;2022-12-29T00:19:27;10.90;1.00
4637;DHT22;2331;48.806;9.140;2022-12-29T00:22:14;10.90;1.00
4637;DHT22;2331;48.806;9.140;2022-12-29T00:24:59;10.90;1.00
4637;DHT22;2331;48.806;9.140;2022-12-29T00:27:43;11.00;1.00
4637;DHT22;2331;48.806;9.140;2022-12-29T00:30:28;11.00;1.00
4637;DHT22;2331;48.806;9.140;2022-12-29T00:33:13;11.00;1.00
4637;DHT22;2331;48.806;9.140;2022-12-29T00:36:00;11.00;1.00
4637;DHT22;2331;48.806;9.140;2022-12-29T00:38:30;11.00;1.00
4637;DHT22;2331;48.806;9.140;2022-12-29T00:41:15;11.00;1.00
4637;DHT22;2331;48.806;9.140;2022-12-29T00:43:59;11.10;1.00
4637;DHT22;2331;48.806;9.140;2022-12-29T00:46:32;11.10;1.00
4637;DHT22;2331;48.806;9.140;2022-12-29T00:48:59;11.10;1.00
4637;DHT22;2331;48.806;9.140;2022-12-29T00:51:43;11.20;1.00
4637;DHT22;2331;48.806;9.140;2022-12-29T00:54:11;11.20;1.00
4637;DHT22;2331;48.806;9.140;2022-12-29T00:56:38;11.20;1.00
4637;DHT22;2331;48.806;9.140;2022-12-29T00:59:06;11.20;1.00
4637;DHT22;2331;48.806;9.140;2022-12-29T01:01:34;11.20;1.00
4637;DHT22;2331;48.806;9.140;2022-12-29T01:04:01;11.20;1.00
4637;DHT22;2331;48.806;9.140;2022-12-29T01:06:28;11.20;1.00
4637;DHT22;2331;48.806;9.140;2022-12-29T01:08:55;11.20;1.00
4637;DHT22;2331;48.806;9.140;2022-12-29T01:11:37;11.20;1.00
4637;DHT22;2331;48.806;9.140;2022-12-29T01:14:04;11.30;1.00
4637;DHT22;2331;48.806;9.140;2022-12-29T01:16:31;11.30;1.00
4637;DHT22;2331;48.806;9.140;2022-12-29T01:18:58;11.30;1.00
4637;DHT22;2331;48.806;9.140;2022-12-29T01:21:25;11.30;1.00
4637;DHT22;2331;48.806;9.140;2022-12-29T01:23:52;11.30;1.00
4637;DHT22;2331;48.806;9.140;2022-12-29T01:26:18;11.30;1.00
4637;DHT22;2331;48.806;9.140;2022-12-29T01:28:46;11.30;1.00
4637;DHT22;2331;48.806;9.140;2022-12-29T01:31:14;11.30;1.00
4637;DHT22;2331;48.806;9.140;2022-12-29T01:33:41;11.40;1.00
4637;DHT22;2331;48.806;9.140;2022-12-29T01:36:10;11.40;1.00
4637;DHT22;2331;48.806;9.140;2022-12-29T01:38:38;11.40;1.00
4637;DHT22;2331;48.806;9.140;2022-12-29T01:41:07;11.40;1.00
4637;DHT22;2331;48.806;9.140;2022-12-29T01:43:41;11.40;1.00
4637;DHT22;2331;48.806;9.140;2022-12-29T01:46:19;11.40;1.00
4637;DHT22;2331;48.806;9.140;2022-12-29T01:48:48;11.40;1.00
4637;DHT22;2331;48.806;9.140;2022-12-29T01:51:15;11.50;1.00
4637;DHT22;2331;48.806;9.140;2022-12-29T01:53:43;11.50;1.00
4637;DHT22;2331;48.806;9.140;2022-12-29T01:56:12;11.50;1.00
4637;DHT22;2331;48.806;9.140;2022-12-29T01:58:44;11.50;1.00
4637;DHT22;2331;48.806;9.140;2022-12-29T02:01:14;11.50;1.00
4637;DHT22;2331;48.806;9.140;2022-12-29T02:03:41;11.60;1.00
4637;DHT22;2331;48.806;9.140;2022-12-29T02:06:11;11.60;1.00
4637;DHT22;2331;48.806;9.140;2022-12-29T02:08:40;11.60;1.00
4637;DHT22;2331;48.806;9.140;2022-12-29T02:11:07;11.60;1.00
4637;DHT22;2331;48.806;9.140;2022-12-29T02:13:34;11.60;1.00
4637;DHT22;2331;48.806;9.140;2022-12-29T02:16:07;11.70;1.00
4637;DHT22;2331;48.806;9.140;2022-12-29T02:18:43;11.70;1.00
4637;DHT22;2331;48.806;9.140;2022-12-29T02:21:53;11.70;1.00
4637;DHT22;2331;48.806;9.140;2022-12-29T02:25:04;11.70;1.00
4637;DHT22;2331;48.806;9.140;2022-12-29T02:27:55;11.70;1.00
4637;DHT22;2331;48.806;9.140;2022-12-29T02:30:36;11.80;1.00
4637;DHT22;2331;48.806;9.140;2022-12-29T02:33:09;11.80;1.00
4637;DHT22;2331;48.806;9.140;2022-12-29T02:35:44;11.80;1.00
4637;DHT22;2331;48.806;9.140;2022-12-29T02:38:18;11.80;1.00
4637;DHT22;2331;48.806;9.140;2022-12-29T02:40:51;11.80;1.00
4637;DHT22;2331;48.806;9.140;2022-12-29T02:43:24;11.90;1.00
4637;DHT22;2331;48.806;9.140;2022-12-29T02:45:55;11.90;1.00
4637;DHT22;2331;48.806;9.140;2022-12-29T02:48:27;11.80;1.00
4637;DHT22;2331;48.806;9.140;2022-12-29T02:51:00;11.80;1.00
4637;DHT22;2331;48.806;9.140;2022-12-29T02:53:29;11.80;1.00
4637;DHT22;2331;48.806;9.140;2022-12-29T02:56:16;11.80;1.00
4637;DHT22;2331;48.806;9.140;2022-12-29T02:58:42;11.80;1.00
4637;DHT22;2331;48.806;9.140;2022-12-29T03:01:21;11.90;1.00
4637;DHT22;2331;48.806;9.140;2022-12-29T03:04:10;11.90;1.00
4637;DHT22;2331;48.806;9.140;2022-12-29T03:06:47;11.80;1.00
4637;DHT22;2331;48.806;9.140;2022-12-29T03:09:26;11.90;1.00
4637;DHT22;2331;48.806;9.140;2022-12-29T03:11:59;11.90;1.00
4637;DHT22;2331;48.806;9.140;2022-12-29T03:14:44;11.90;1.00
4637;DHT22;2331;48.806;9.140;2022-12-29T03:17:38;11.90;1.00
4637;DHT22;2331;48.806;9.140;2022-12-29T03:20:08;11.90;1.00
4637;DHT22;2331;48.806;9.140;2022-12-29T03:22:39;11.90;1.00
4637;DHT22;2331;48.806;9.140;2022-12-29T03:25:10;12.00;1.00
4637;DHT22;2331;48.806;9.140;2022-12-29T03:27:41;12.00;1.00
4637;DHT22;2331;48.806;9.140;2022-12-29T03:30:09;12.10;1.00
4637;DHT22;2331;48.806;9.140;2022-12-29T03:32:40;12.10;1.00
4637;DHT22;2331;48.806;9.140;2022-12-29T03:35:10;12.10;1.00
4637;DHT22;2331;48.806;9.140;2022-12-29T03:37:41;12.10;1.00
4637;DHT22;2331;48.806;9.140;2022-12-29T03:40:09;12.20;1.00
4637;DHT22;2331;48.806;9.140;2022-12-29T03:42:37;12.20;1.00
4637;DHT22;2331;48.806;9.140;2022-12-29T03:45:07;12.20;1.00
4637;DHT22;2331;48.806;9.140;2022-12-29T03:47:34;12.30;1.00
4637;DHT22;2331;48.806;9.140;2022-12-29T03:50:02;12.30;1.00
4637;DHT22;2331;48.806;9.140;2022-12-29T03:52:28;12.40;1.00
4637;DHT22;2331;48.806;9.140;2022-12-29T03:54:55;12.40;1.00
4637;DHT22;2331;48.806;9.140;2022-12-29T03:57:22;12.40;1.00
4637;DHT22;2331;48.806;9.140;2022-12-29T03:59:48;12.40;1.00
4637;DHT22;2331;48.806;9.140;2022-12-29T04:02:15;12.40;1.00
4637;DHT22;2331;48.806;9.140;2022-12-29T04:04:42;12.40;1.00
4637;DHT22;2331;48.806;9.140;2022-12-29T04:07:09;12.50;1.00
4637;DHT22;2331;48.806;9.140;2022-12-29T04:09:36;12.50;1.00
4637;DHT22;2331;48.806;9.140;2022-12-29T04:12:03;12.50;1.00
4637;DHT22;2331;48.806;9.140;2022-12-29T04:14:30;12.50;1.00
4637;DHT22;2331;48.806;9.140;2022-12-29T04:16:56;12.50;1.00
4637;DHT22;2331;48.806;9.140;2022-12-29T04:19:23;12.50;1.00
4637;DHT22;2331;48.806;9.140;2022-12-29T04:21:50;12.50;1.00
4637;DHT22;2331;48.806;9.140;2022-12-29T04:24:18;12.50;1.00
4637;DHT22;2331;48.806;9.140;2022-12-29T04:26:45;12.50;1.00
4637;DHT22;2331;48.806;9.140;2022-12-29T04:29:11;12.50;1.00
4637;DHT22;2331;48.806;9.140;2022-12-29T04:31:41;12.50;1.00
4637;DHT22;2331;48.806;9.140;2022-12-29T04:34:08;12.40;1.00
4637;DHT22;2331;48.806;9.140;2022-12-29T04:36:34;12.50;1.00
4637;DHT22;2331;48.806;9.140;2022-12-29T04:39:01;12.60;1.00
4637;DHT22;2331;48.806;9.140;2022-12-29T04:41:31;12.60;1.00
4637;DHT22;2331;48.806;9.140;2022-12-29T04:43:58;12.50;1.00
4637;DHT22;2331;48.806;9.140;2022-12-29T04:46:25;12.50;1.00
4637;DHT22;2331;48.806;9.140;2022-12-29T04:48:51;12.60;1.00
4637;DHT22;2331;48.806;9.140;2022-12-29T04:51:18;12.60;1.00
4637;DHT22;2331;48.806;9.140;2022-12-29T04:53:45;12.70;1.00
4637;DHT22;2331;48.806;9.140;2022-12-29T04:56:11;12.60;1.00
4637;DHT22;2331;48.806;9.140;2022-12-29T04:58:39;12.70;1.00
4637;DHT22;2331;48.806;9.140;2022-12-29T05:01:06;12.60;1.00
4637;DHT22;2331;48.806;9.140;2022-12-29T05:03:33;12.70;1.00
4637;DHT22;2331;48.806;9.140;2022-12-29T05:05:59;12.70;1.00
4637;DHT22;2331;48.806;9.140;2022-12-29T05:08:26;12.70;1.00
4637;DHT22;2331;48.806;9.140;2022-12-29T05:10:53;12.70;1.00
4637;DHT22;2331;48.806;9.140;2022-12-29T05:13:19;12.60;1.00
4637;DHT22;2331;48.806;9.140;2022-12-29T05:15:50;12.70;1.00
4637;DHT22;2331;48.806;9.140;2022-12-29T05:18:17;12.60;1.00
4637;DHT22;2331;48.806;9.140;2022-12-29T05:20:44;12.60;1.00
4637;DHT22;2331;48.806;9.140;2022-12-29T05:23:11;12.70;1.00
4637;DHT22;2331;48.806;9.140;2022-12-29T05:25:38;12.70;1.00
4637;DHT22;2331;48.806;9.140;2022-12-29T05:28:05;12.60;1.00
4637;DHT22;2331;48.806;9.140;2022-12-29T05:30:31;12.60;1.00
4637;DHT22;2331;48.806;9.140;2022-12-29T05:32:59;12.70;1.00
4637;DHT22;2331;48.806;9.140;2022-12-29T05:35:26;12.70;1.00
4637;DHT22;2331;48.806;9.140;2022-12-29T05:37:53;12.60;1.00
4637;DHT22;2331;48.806;9.140;2022-12-29T05:40:19;12.70;1.00
4637;DHT22;2331;48.806;9.140;2022-12-29T05:42:46;12.70;1.00
4637;DHT22;2331;48.806;9.140;2022-12-29T05:45:13;12.70;1.00
4637;DHT22;2331;48.806;9.140;2022-12-29T05:47:39;12.80;1.00
4637;DHT22;2331;48.806;9.140;2022-12-29T05:50:08;12.70;1.00
4637;DHT22;2331;48.806;9.140;2022-12-29T05:52:34;12.70;1.00
4637;DHT22;2331;48.806;9.140;2022-12-29T05:55:01;12.80;1.00
4637;DHT22;2331;48.806;9.140;2022-12-29T05:57:28;12.80;1.00
4637;DHT22;2331;48.806;9.140;2022-12-29T05:59:54;12.80;1.00
4637;DHT22;2331;48.806;9.140;2022-12-29T06:02:21;12.80;1.00
4637;DHT22;2331;48.806;9.140;2022-12-29T06:04:48;12.90;1.00
4637;DHT22;2331;48.806;9.140;2022-12-29T06:07:16;12.90;1.00
4637;DHT22;2331;48.806;9.140;2022-12-29T06:09:42;12.90;1.00
4637;DHT22;2331;48.806;9.140;2022-12-29T06:12:09;12.90;1.00
4637;DHT22;2331;48.806;9.140;2022-12-29T06:14:36;12.80;1.00
4637;DHT22;2331;48.806;9.140;2022-12-29T06:17:02;12.90;1.00
4637;DHT22;2331;48.806;9.140;2022-12-29T06:19:29;12.90;1.00
4637;DHT22;2331;48.806;9.140;2022-12-29T06:21:56;12.80;1.00
4637;DHT22;2331;48.806;9.140;2022-12-29T06:24:24;12.90;1.00
4637;DHT22;2331;48.806;9.140;2022-12-29T06:26:50;12.90;1.00
4637;DHT22;2331;48.806;9.140;2022-12-29T06:29:17;12.90;1.00
4637;DHT22;2331;48.806;9.140;2022-12-29T06:31:45;12.90;1.00
4637;DHT22;2331;48.806;9.140;2022-12-29T06:34:12;12.80;1.00
4637;DHT22;2331;48.806;9.140;2022-12-29T06:36:39;12.80;1.00
4637;DHT22;2331;48.806;9.140;2022-12-29T06:39:06;12.90;1.00
4637;DHT22;2331;48.806;9.140;2022-12-29T06:41:34;12.80;1.00
4637;DHT22;2331;48.806;9.140;2022-12-29T06:44:00;12.80;1.00
4637;DHT22;2331;48.806;9.140;2022-12-29T06:46:27;12.90;1.00
4637;DHT22;2331;48.806;9.140;2022-12-29T06:48:54;12.90;1.00
4637;DHT22;2331;48.806;9.140;2022-12-29T06:51:20;12.90;1.00
4637;DHT22;2331;48.806;9.140;2022-12-29T06:53:47;12.90;1.00
4637;DHT22;2331;48.806;9.140;2022-12-29T06:56:14;12.90;1.00
4637;DHT22;2331;48.806;9.140;2022-12-29T06:58:42;12.80;1.00
4637;DHT22;2331;48.806;9.140;2022-12-29T07:01:08;12.80;1.00
4637;DHT22;2331;48.806;9.140;2022-12-29T07:03:35;12.80;1.00
4637;DHT22;2331;48.806;9.140;2022-12-29T07:06:01;12.90;1.00
4637;DHT22;2331;48.806;9.140;2022-12-29T07:08:28;12.90;1.00
4637;DHT22;2331;48.806;9.140;2022-12-29T07:10:56;12.90;1.00
4637;DHT22;2331;48.806;9.140;2022-12-29T07:13:22;12.90;1.00
4637;DHT22;2331;48.806;9.140;2022-12-29T07:15:50;12.80;1.00
4637;DHT22;2331;48.806;9.140;2022-12-29T07:18:17;12.80;1.00
4637;DHT22;2331;48.806;9.140;2022-12-29T07:20:44;12.80;1.00
4637;DHT22;2331;48.806;9.140;2022-12-29T07:23:10;12.80;1.00
4637;DHT22;2331;48.806;9.140;2022-12-29T07:25:37;12.80;1.00
4637;DHT22;2331;48.806;9.140;2022-12-29T07:28:06;12.80;1.00
4637;DHT22;2331;48.806;9.140;2022-12-29T07:30:33;12.80;1.00
4637;DHT22;2331;48.806;9.140;2022-12-29T07:33:01;12.90;1.00
4637;DHT22;2331;48.806;9.140;2022-12-29T07:35:27;12.80;1.00
4637;DHT22;2331;48.806;9.140;2022-12-29T07:37:54;12.80;1.00
4637;DHT22;2331;48.806;9.140;2022-12-29T07:40:21;12.80;1.00
4637;DHT22;2331;48.806;9.140;2022-12-29T07:42:47;12.80;1.00
4637;DHT22;2331;48.806;9.140;2022-12-29T07:45:14;12.80;1.00
4637;DHT22;2331;48.806;9.140;2022-12-29T07:47:41;12.70;1.00
4637;DHT22;2331;48.806;9.140;2022-12-29T07:50:09;12.70;1.00
4637;DHT22;2331;48.806;9.140;2022-12-29T07:52:35;12.80;1.00
4637;DHT22;2331;48.806;9.140;2022-12-29T07:55:05;12.70;1.00
4637;DHT22;2331;48.806;9.140;2022-12-29T07:57:31;12.70;1.00
4637;DHT22;2331;48.806;9.140;2022-12-29T07:59:58;12.70;1.00
4637;DHT22;2331;48.806;9.140;2022-12-29T08:02:25;12.70;1.00
4637;DHT22;2331;48.806;9.140;2022-12-29T08:04:52;12.70;1.00
4637;DHT22;2331;48.806;9.140;2022-12-29T08:07:20;12.60;1.00
4637;DHT22;2331;48.806;9.140;2022-12-29T08:09:47;12.60;1.00
4637;DHT22;2331;48.806;9.140;2022-12-29T08:12:14;12.60;1.00
4637;DHT22;2331;48.806;9.140;2022-12-29T08:14:40;12.70;1.00
4637;DHT22;2331;48.806;9.140;2022-12-29T08:17:07;12.70;1.00
4637;DHT22;2331;48.806;9.140;2022-12-29T08:19:33;12.60;1.00
4637;DHT22;2331;48.806;9.140;2022-12-29T08:22:00;12.70;1.00
4637;DHT22;2331;48.806;9.140;2022-12-29T08:24:28;12.60;1.00
4637;DHT22;2331;48.806;9.140;2022-12-29T08:26:55;12.70;1.00
4637;DHT22;2331;48.806;9.140;2022-12-29T08:29:22;12.70;1.00
4637;DHT22;2331;48.806;9.140;2022-12-29T08:31:48;12.70;1.00
4637;DHT22;2331;48.806;9.140;2022-12-29T08:34:15;12.70;1.00
4637;DHT22;2331;48.806;9.140;2022-12-29T08:36:42;12.70;1.00
4637;DHT22;2331;48.806;9.140;2022-12-29T08:39:08;12.70;1.00
4637;DHT22;2331;48.806;9.140;2022-12-29T08:41:36;12.80;1.00
4637;DHT22;2331;48.806;9.140;2022-12-29T08:44:04;12.70;1.00
4637;DHT22;2331;48.806;9.140;2022-12-29T08:46:30;12.70;1.00
4637;DHT22;2331;48.806;9.140;2022-12-29T08:48:57;12.70;1.00
4637;DHT22;2331;48.806;9.140;2022-12-29T08:51:24;12.70;1.00
4637;DHT22;2331;48.806;9.140;2022-12-29T08:53:51;12.80;1.00
4637;DHT22;2331;48.806;9.140;2022-12-29T08:56:18;12.80;1.00
4637;DHT22;2331;48.806;9.140;2022-12-29T08:58:46;12.70;1.00
4637;DHT22;2331;48.806;9.140;2022-12-29T09:01:12;12.80;1.00
4637;DHT22;2331;48.806;9.140;2022-12-29T09:03:39;12.80;1.00
4637;DHT22;2331;48.806;9.140;2022-12-29T09:06:06;12.80;1.00
4637;DHT22;2331;48.806;9.140;2022-12-29T09:08:32;12.80;1.00
4637;DHT22;2331;48.806;9.140;2022-12-29T09:11:06;12.80;1.00
4637;DHT22;2331;48.806;9.140;2022-12-29T09:13:34;12.90;1.00
4637;DHT22;2331;48.806;9.140;2022-12-29T09:16:03;12.90;1.00
4637;DHT22;2331;48.806;9.140;2022-12-29T09:18:30;13.00;1.00
4637;DHT22;2331;48.806;9.140;2022-12-29T09:20:57;13.00;1.00
4637;DHT22;2331;48.806;9.140;2022-12-29T09:23:24;13.00;1.00
4637;DHT22;2331;48.806;9.140;2022-12-29T09:25:51;13.10;1.00
4637;DHT22;2331;48.806;9.140;2022-12-29T09:28:18;13.20;1.00
4637;DHT22;2331;48.806;9.140;2022-12-29T09:30:45;13.30;1.00
4637;DHT22;2331;48.806;9.140;2022-12-29T09:33:13;13.30;1.00
4637;DHT22;2331;48.806;9.140;2022-12-29T09:35:41;13.40;1.00
4637;DHT22;2331;48.806;9.140;2022-12-29T09:38:08;13.50;1.00
4637;DHT22;2331;48.806;9.140;2022-12-29T09:40:35;13.50;1.00
4637;DHT22;2331;48.806;9.140;2022-12-29T09:43:16;13.50;1.00
4637;DHT22;2331;48.806;9.140;2022-12-29T09:45:47;13.50;1.00
4637;DHT22;2331;48.806;9.140;2022-12-29T09:48:22;13.60;1.00
4637;DHT22;2331;48.806;9.140;2022-12-29T09:50:52;13.60;1.00
4637;DHT22;2331;48.806;9.140;2022-12-29T09:53:27;13.70;1.00
4637;DHT22;2331;48.806;9.140;2022-12-29T09:55:57;13.80;1.00
4637;DHT22;2331;48.806;9.140;2022-12-29T09:58:30;13.90;1.00
4637;DHT22;2331;48.806;9.140;2022-12-29T10:01:02;14.00;1.00
4637;DHT22;2331;48.806;9.140;2022-12-29T10:03:40;14.00;1.00
4637;DHT22;2331;48.806;9.140;2022-12-29T10:06:13;14.00;1.00
4637;DHT22;2331;48.806;9.140;2022-12-29T10:08:46;14.10;1.00
4637;DHT22;2331;48.806;9.140;2022-12-29T10:11:23;14.00;1.00
4637;DHT22;2331;48.806;9.140;2022-12-29T10:14:08;14.20;1.00
4637;DHT22;2331;48.806;9.140;2022-12-29T10:16:46;14.20;1.00
4637;DHT22;2331;48.806;9.140;2022-12-29T10:19:39;14.20;1.00
4637;DHT22;2331;48.806;9.140;2022-12-29T10:22:17;14.30;1.00
4637;DHT22;2331;48.806;9.140;2022-12-29T10:24:51;14.30;1.00
4637;DHT22;2331;48.806;9.140;2022-12-29T10:27:19;14.30;1.00
4637;DHT22;2331;48.806;9.140;2022-12-29T10:29:49;14.40;1.00
4637;DHT22;2331;48.806;9.140;2022-12-29T10:32:25;14.40;1.00
4637;DHT22;2331;48.806;9.140;2022-12-29T10:34:57;14.40;1.00
4637;DHT22;2331;48.806;9.140;2022-12-29T10:37:32;14.50;1.00
4637;DHT22;2331;48.806;9.140;2022-12-29T10:40:09;14.50;1.00
4637;DHT22;2331;48.806;9.140;2022-12-29T10:42:42;14.50;1.00
4637;DHT22;2331;48.806;9.140;2022-12-29T10:45:11;14.60;1.00
4637;DHT22;2331;48.806;9.140;2022-12-29T10:47:47;14.70;1.00
4637;DHT22;2331;48.806;9.140;2022-12-29T10:50:17;14.70;1.00
4637;DHT22;2331;48.806;9.140;2022-12-29T10:52:45;14.70;1.00
4637;DHT22;2331;48.806;9.140;2022-12-29T10:55:16;14.80;1.00
4637;DHT22;2331;48.806;9.140;2022-12-29T10:57:45;14.90;1.00
4637;DHT22;2331;48.806;9.140;2022-12-29T11:00:13;14.90;1.00
4637;DHT22;2331;48.806;9.140;2022-12-29T11:03:01;15.00;1.00
4637;DHT22;2331;48.806;9.140;2022-12-29T11:05:36;15.00;1.00
4637;DHT22;2331;48.806;9.140;2022-12-29T11:08:10;15.10;1.00
4637;DHT22;2331;48.806;9.140;2022-12-29T11:10:38;15.10;1.00
4637;DHT22;2331;48.806;9.140;2022-12-29T11:13:11;15.10;1.00
4637;DHT22;2331;48.806;9.140;2022-12-29T11:15:39;15.10;1.00
4637;DHT22;2331;48.806;9.140;2022-12-29T11:18:17;15.10;1.00
4637;DHT22;2331;48.806;9.140;2022-12-29T11:20:46;15.10;1.00
4637;DHT22;2331;48.806;9.140;2022-12-29T11:23:24;15.10;1.00
4637;DHT22;2331;48.806;9.140;2022-12-29T11:26:07;15.20;1.00
4637;DHT22;2331;48.806;9.140;2022-12-29T11:28:38;15.10;1.00
4637;DHT22;2331;48.806;9.140;2022-12-29T11:31:07;15.10;1.00
4637;DHT22;2331;48.806;9.140;2022-12-29T11:33:35;15.10;1.00
4637;DHT22;2331;48.806;9.140;2022-12-29T11:36:06;15.00;1.00
4637;DHT22;2331;48.806;9.140;2022-12-29T11:38:35;15.10;1.00
4637;DHT22;2331;48.806;9.140;2022-12-29T11:41:03;15.10;1.00
4637;DHT22;2331;48.806;9.140;2022-12-29T11:43:33;15.10;1.00
4637;DHT22;2331;48.806;9.140;2022-12-29T11:46:01;15.00;1.00
4637;DHT22;2331;48.806;9.140;2022-12-29T11:48:32;14.90;1.00
4637;DHT22;2331;48.806;9.140;2022-12-29T11:51:00;14.70;1.00
4637;DHT22;2331;48.806;9.140;2022-12-29T11:53:34;14.90;1.00
4637;DHT22;2331;48.806;9.140;2022-12-29T11:56:07;14.90;1.00
4637;DHT22;2331;48.806;9.140;2022-12-29T11:58:36;14.90;1.00
4637;DHT22;2331;48.806;9.140;2022-12-29T12:01:06;14.90;1.00
4637;DHT22;2331;48.806;9.140;2022-12-29T12:03:36;14.80;1.00
4637;DHT22;2331;48.806;9.140;2022-12-29T12:06:07;14.70;1.00
4637;DHT22;2331;48.806;9.140;2022-12-29T12:08:41;14.50;1.00
4637;DHT22;2331;48.806;9.140;2022-12-29T12:11:12;14.30;1.00
4637;DHT22;2331;48.806;9.140;2022-12-29T12:13:43;14.40;1.00
4637;DHT22;2331;48.806;9.140;2022-12-29T12:16:15;14.30;1.00
4637;DHT22;2331;48.806;9.140;2022-12-29T12:18:46;14.40;1.00
4637;DHT22;2331;48.806;9.140;2022-12-29T12:21:21;14.30;1.00
4637;DHT22;2331;48.806;9.140;2022-12-29T12:24:30;14.40;1.00
4637;DHT22;2331;48.806;9.140;2022-12-29T12:27:04;14.50;1.00
4637;DHT22;2331;48.806;9.140;2022-12-29T12:29:38;14.50;1.00
4637;DHT22;2331;48.806;9.140;2022-12-29T12:32:12;14.60;1.00
4637;DHT22;2331;48.806;9.140;2022-12-29T12:34:42;14.50;1.00
4637;DHT22;2331;48.806;9.140;2022-12-29T12:37:33;14.50;1.00
4637;DHT22;2331;48.806;9.140;2022-12-29T12:40:29;14.50;1.00
4637;DHT22;2331;48.806;9.140;2022-12-29T12:43:06;14.50;1.00
4637;DHT22;2331;48.806;9.140;2022-12-29T12:45:45;14.50;1.00
4637;DHT22;2331;48.806;9.140;2022-12-29T12:48:32;14.40;1.00
4637;DHT22;2331;48.806;9.140;2022-12-29T12:51:11;14.40;1.00
4637;DHT22;2331;48.806;9.140;2022-12-29T12:54:01;14.50;1.00
4637;DHT22;2331;48.806;9.140;2022-12-29T12:56:51;14.50;1.00
4637;DHT22;2331;48.806;9.140;2022-12-29T12:59:34;14.60;1.00
4637;DHT22;2331;48.806;9.140;2022-12-29T13:02:16;14.50;1.00
4637;DHT22;2331;48.806;9.140;2022-12-29T13:05:04;14.60;1.00
4637;DHT22;2331;48.806;9.140;2022-12-29T13:07:44;14.50;1.00
4637;DHT22;2331;48.806;9.140;2022-12-29T13:10:25;14.50;1.00
4637;DHT22;2331;48.806;9.140;2022-12-29T13:13:12;14.60;1.00
4637;DHT22;2331;48.806;9.140;2022-12-29T13:15:45;14.60;1.00
4637;DHT22;2331;48.806;9.140;2022-12-29T13:18:22;14.70;1.00
4637;DHT22;2331;48.806;9.140;2022-12-29T13:20:55;14.80;1.00
4637;DHT22;2331;48.806;9.140;2022-12-29T13:23:26;14.70;1.00
4637;DHT22;2331;48.806;9.140;2022-12-29T13:26:04;14.70;1.00
4637;DHT22;2331;48.806;9.140;2022-12-29T13:28:44;14.70;1.00
4637;DHT22;2331;48.806;9.140;2022-12-29T13:31:20;14.70;1.00
4637;DHT22;2331;48.806;9.140;2022-12-29T13:33:57;14.60;1.00
4637;DHT22;2331;48.806;9.140;2022-12-29T13:36:31;14.60;1.00
4637;DHT22;2331;48.806;9.140;2022-12-29T13:39:04;14.60;1.00
4637;DHT22;2331;48.806;9.140;2022-12-29T13:41:35;14.60;1.00
4637;DHT22;2331;48.806;9.140;2022-12-29T13:44:09;14.60;1.00
4637;DHT22;2331;48.806;9.140;2022-12-29T13:46:43;14.50;1.00
4637;DHT22;2331;48.806;9.140;2022-12-29T13:49:15;14.50;1.00
4637;DHT22;2331;48.806;9.140;2022-12-29T13:51:48;14.60;1.00
4637;DHT22;2331;48.806;9.140;2022-12-29T13:54:25;14.60;1.00
4637;DHT22;2331;48.806;9.140;2022-12-29T13:56:59;14.50;1.00
4637;DHT22;2331;48.806;9.140;2022-12-29T13:59:38;14.50;1.00
4637;DHT22;2331;48.806;9.140;2022-12-29T14:02:15;14.50;1.00
4637;DHT22;2331;48.806;9.140;2022-12-29T14:04:56;14.50;1.00
4637;DHT22;2331;48.806;9.140;2022-12-29T14:07:23;14.40;1.00
4637;DHT22;2331;48.806;9.140;2022-12-29T14:09:51;14.40;1.00
4637;DHT22;2331;48.806;9.140;2022-12-29T14:12:35;14.50;1.00
4637;DHT22;2331;48.806;9.140;2022-12-29T14:15:19;14.50;1.00
4637;DHT22;2331;48.806;9.140;2022-12-29T14:18:05;14.40;1.00
4637;DHT22;2331;48.806;9.140;2022-12-29T14:20:36;14.40;1.00
4637;DHT22;2331;48.806;9.140;2022-12-29T14:23:17;14.40;1.00
4637;DHT22;2331;48.806;9.140;2022-12-29T14:26:09;14.30;1.00
4637;DHT22;2331;48.806;9.140;2022-12-29T14:28:37;14.30;1.00
4637;DHT22;2331;48.806;9.140;2022-12-29T14:31:35;14.40;1.00
4637;DHT22;2331;48.806;9.140;2022-12-29T14:34:28;14.30;1.00
4637;DHT22;2331;48.806;9.140;2022-12-29T14:36:56;14.20;1.00
4637;DHT22;2331;48.806;9.140;2022-12-29T14:39:33;14.30;1.00
4637;DHT22;2331;48.806;9.140;2022-12-29T14:42:01;14.30;1.00
4637;DHT22;2331;48.806;9.140;2022-12-29T14:44:29;14.20;1.00
4637;DHT22;2331;48.806;9.140;2022-12-29T14:46:59;14.20;1.00
4637;DHT22;2331;48.806;9.140;2022-12-29T14:49:30;14.20;1.00
4637;DHT22;2331;48.806;9.140;2022-12-29T14:52:06;14.30;1.00
4637;DHT22;2331;48.806;9.140;2022-12-29T14:55:27;14.40;1.00
4637;DHT22;2331;48.806;9.140;2022-12-29T14:58:00;14.30;1.00
4637;DHT22;2331;48.806;9.140;2022-12-29T15:00:30;14.30;1.00
4637;DHT22;2331;48.806;9.140;2022-12-29T15:03:05;14.10;1.00
4637;DHT22;2331;48.806;9.140;2022-12-29T15:05:36;14.00;1.00
4637;DHT22;2331;48.806;9.140;2022-12-29T15:08:04;14.00;1.00
4637;DHT22;2331;48.806;9.140;2022-12-29T15:10:37;14.10;1.00
4637;DHT22;2331;48.806;9.140;2022-12-29T15:13:15;14.10;1.00
4637;DHT22;2331;48.806;9.140;2022-12-29T15:15:42;14.10;1.00
4637;DHT22;2331;48.806;9.140;2022-12-29T15:18:22;14.10;1.00
4637;DHT22;2331;48.806;9.140;2022-12-29T15:20:51;14.00;1.00
4637;DHT22;2331;48.806;9.140;2022-12-29T15:23:19;14.00;1.00
4637;DHT22;2331;48.806;9.140;2022-12-29T15:25:47;14.00;1.00
4637;DHT22;2331;48.806;9.140;2022-12-29T15:28:16;14.00;1.00
4637;DHT22;2331;48.806;9.140;2022-12-29T15:30:51;14.00;1.00
4637;DHT22;2331;48.806;9.140;2022-12-29T15:33:21;14.00;1.00
4637;DHT22;2331;48.806;9.140;2022-12-29T15:35:50;14.00;1.00
4637;DHT22;2331;48.806;9.140;2022-12-29T15:38:21;13.90;1.00
4637;DHT22;2331;48.806;9.140;2022-12-29T15:40:52;13.80;1.00
4637;DHT22;2331;48.806;9.140;2022-12-29T15:43:37;13.60;1.00
4637;DHT22;2331;48.806;9.140;2022-12-29T15:46:07;13.60;1.00
4637;DHT22;2331;48.806;9.140;2022-12-29T15:48:35;13.50;1.00
4637;DHT22;2331;48.806;9.140;2022-12-29T15:51:02;13.40;1.00
4637;DHT22;2331;48.806;9.140;2022-12-29T15:53:31;12.90;1.00
4637;DHT22;2331;48.806;9.140;2022-12-29T15:56:01;12.70;1.00
4637;DHT22;2331;48.806;9.140;2022-12-29T15:58:30;12.70;1.00
4637;DHT22;2331;48.806;9.140;2022-12-29T16:00:58;12.70;1.00
4637;DHT22;2331;48.806;9.140;2022-12-29T16:03:27;12.80;1.00
4637;DHT22;2331;48.806;9.140;2022-12-29T16:06:07;12.70;1.00
4637;DHT22;2331;48.806;9.140;2022-12-29T16:08:36;12.80;1.00
4637;DHT22;2331;48.806;9.140;2022-12-29T16:11:07;12.90;1.00
4637;DHT22;2331;48.806;9.140;2022-12-29T16:13:43;12.90;1.00
4637;DHT22;2331;48.806;9.140;2022-12-29T16:16:14;12.80;1.00
4637;DHT22;2331;48.806;9.140;2022-12-29T16:18:44;12.80;1.00
4637;DHT22;2331;48.806;9.140;2022-12-29T16:21:18;12.60;1.00
4637;DHT22;2331;48.806;9.140;2022-12-29T16:23:48;12.70;1.00
4637;DHT22;2331;48.806;9.140;2022-12-29T16:26:17;12.70;1.00
4637;DHT22;2331;48.806;9.140;2022-12-29T16:28:47;12.70;1.00
4637;DHT22;2331;48.806;9.140;2022-12-29T16:31:21;12.60;1.00
4637;DHT22;2331;48.806;9.140;2022-12-29T16:33:49;12.60;1.00
4637;DHT22;2331;48.806;9.140;2022-12-29T16:36:32;12.70;1.00
4637;DHT22;2331;48.806;9.140;2022-12-29T16:39:20;12.80;1.00
4637;DHT22;2331;48.806;9.140;2022-12-29T16:41:48;12.80;1.00
4637;DHT22;2331;48.806;9.140;2022-12-29T16:44:19;12.90;1.00
4637;DHT22;2331;48.806;9.140;2022-12-29T16:49:50;12.80;1.00